sensor_id;sensor_type;location;lat;lon;timestamp;P1;durP1;ratioP1;P2;durP2;ratioP2
55760;SDS011;41679;51.440;-2.012;2022-07-04T00:01:59;10.35;;;1.40;;
55760;SDS011;41679;51.440;-2.012;2022-07-04T00:04:25;9.27;;;1.52;;
55760;SDS011;41679;51.440;-2.012;2022-07-04T00:06:51;13.60;;;2.10;;
55760;SDS011;41679;51.440;-2.012;2022-07-04T00:09:16;15.65;;;1.90;;
55760;SDS011;41679;51.440;-2.012;2022-07-04T00:11:42;16.30;;;2.25;;
55760;SDS011;41679;51.440;-2.012;2022-07-04T00:14:07;11.05;;;1.80;;
55760;SDS011;41679;51.440;-2.012;2022-07-04T00:16:33;12.20;;;1.90;;
55760;SDS011;41679;51.440;-2.012;2022-07-04T00:18:59;10.10;;;1.65;;
55760;SDS011;41679;51.440;-2.012;2022-07-04T00:21:25;10.90;;;1.58;;
55760;SDS011;41679;51.440;-2.012;2022-07-04T00:23:50;10.20;;;1.35;;
55760;SDS011;41679;51.440;-2.012;2022-07-04T00:26:16;10.70;;;1.52;;
55760;SDS011;41679;51.440;-2.012;2022-07-04T00:28:42;10.57;;;1.48;;
55760;SDS011;41679;51.440;-2.012;2022-07-04T00:31:07;10.60;;;1.38;;
55760;SDS011;41679;51.440;-2.012;2022-07-04T00:33:33;14.95;;;1.67;;
55760;SDS011;41679;51.440;-2.012;2022-07-04T00:35:58;7.25;;;1.10;;
55760;SDS011;41679;51.440;-2.012;2022-07-04T00:38:24;13.98;;;1.58;;
55760;SDS011;41679;51.440;-2.012;2022-07-04T00:40:49;11.35;;;1.38;;
55760;SDS011;41679;51.440;-2.012;2022-07-04T00:43:24;10.68;;;1.65;;
55760;SDS011;41679;51.440;-2.012;2022-07-04T00:45:51;8.20;;;1.40;;
55760;SDS011;41679;51.440;-2.012;2022-07-04T00:48:17;9.18;;;1.50;;
55760;SDS011;41679;51.440;-2.012;2022-07-04T00:50:43;11.15;;;1.65;;
55760;SDS011;41679;51.440;-2.012;2022-07-04T00:53:11;12.00;;;1.77;;
55760;SDS011;41679;51.440;-2.012;2022-07-04T00:55:41;13.40;;;1.75;;
55760;SDS011;41679;51.440;-2.012;2022-07-04T00:58:07;13.25;;;2.58;;
55760;SDS011;41679;51.440;-2.012;2022-07-04T01:00:34;11.05;;;2.17;;
55760;SDS011;41679;51.440;-2.012;2022-07-04T01:02:59;15.32;;;2.50;;
55760;SDS011;41679;51.440;-2.012;2022-07-04T01:05:25;13.48;;;2.05;;
55760;SDS011;41679;51.440;-2.012;2022-07-04T01:07:50;13.73;;;2.15;;
55760;SDS011;41679;51.440;-2.012;2022-07-04T01:10:16;13.88;;;2.35;;
55760;SDS011;41679;51.440;-2.012;2022-07-04T01:12:41;19.65;;;2.97;;
55760;SDS011;41679;51.440;-2.012;2022-07-04T01:15:07;13.48;;;2.30;;
55760;SDS011;41679;51.440;-2.012;2022-07-04T01:17:33;11.90;;;2.15;;
55760;SDS011;41679;51.440;-2.012;2022-07-04T01:19:59;14.52;;;2.20;;
55760;SDS011;41679;51.440;-2.012;2022-07-04T01:22:24;15.48;;;2.83;;
55760;SDS011;41679;51.440;-2.012;2022-07-04T01:24:50;12.18;;;2.60;;
55760;SDS011;41679;51.440;-2.012;2022-07-04T01:27:15;16.08;;;2.53;;
55760;SDS011;41679;51.440;-2.012;2022-07-04T01:29:41;19.35;;;2.95;;
55760;SDS011;41679;51.440;-2.012;2022-07-04T01:32:07;16.15;;;3.55;;
55760;SDS011;41679;51.440;-2.012;2022-07-04T01:34:34;15.85;;;3.15;;
55760;SDS011;41679;51.440;-2.012;2022-07-04T01:37:00;14.70;;;2.67;;
55760;SDS011;41679;51.440;-2.012;2022-07-04T01:39:27;13.70;;;2.63;;
55760;SDS011;41679;51.440;-2.012;2022-07-04T01:41:53;13.80;;;2.78;;
55760;SDS011;41679;51.440;-2.012;2022-07-04T01:44:18;15.13;;;2.60;;
55760;SDS011;41679;51.440;-2.012;2022-07-04T01:46:45;15.10;;;2.88;;
55760;SDS011;41679;51.440;-2.012;2022-07-04T01:49:10;16.98;;;3.10;;
55760;SDS011;41679;51.440;-2.012;2022-07-04T01:51:42;16.85;;;3.40;;
55760;SDS011;41679;51.440;-2.012;2022-07-04T01:54:09;17.90;;;4.80;;
55760;SDS011;41679;51.440;-2.012;2022-07-04T01:56:34;15.30;;;3.72;;
55760;SDS011;41679;51.440;-2.012;2022-07-04T01:59:00;17.52;;;4.00;;
55760;SDS011;41679;51.440;-2.012;2022-07-04T02:01:26;15.20;;;3.30;;
55760;SDS011;41679;51.440;-2.012;2022-07-04T02:03:56;15.50;;;3.38;;
55760;SDS011;41679;51.440;-2.012;2022-07-04T02:06:25;16.60;;;3.80;;
55760;SDS011;41679;51.440;-2.012;2022-07-04T02:08:51;16.58;;;3.58;;
55760;SDS011;41679;51.440;-2.012;2022-07-04T02:11:36;18.13;;;5.10;;
55760;SDS011;41679;51.440;-2.012;2022-07-04T02:16:46;15.70;;;3.63;;
55760;SDS011;41679;51.440;-2.012;2022-07-04T02:19:12;15.70;;;3.38;;
55760;SDS011;41679;51.440;-2.012;2022-07-04T02:21:37;16.17;;;3.38;;
55760;SDS011;41679;51.440;-2.012;2022-07-04T02:24:03;14.52;;;3.05;;
55760;SDS011;41679;51.440;-2.012;2022-07-04T02:26:28;10.60;;;1.80;;
55760;SDS011;41679;51.440;-2.012;2022-07-04T02:28:54;12.23;;;2.10;;
55760;SDS011;41679;51.440;-2.012;2022-07-04T02:31:19;12.80;;;1.95;;
55760;SDS011;41679;51.440;-2.012;2022-07-04T02:33:45;14.18;;;2.40;;
55760;SDS011;41679;51.440;-2.012;2022-07-04T02:36:10;13.68;;;2.08;;
55760;SDS011;41679;51.440;-2.012;2022-07-04T02:38:36;12.25;;;2.15;;
55760;SDS011;41679;51.440;-2.012;2022-07-04T02:41:01;10.73;;;1.80;;
55760;SDS011;41679;51.440;-2.012;2022-07-04T02:43:26;13.00;;;2.10;;
55760;SDS011;41679;51.440;-2.012;2022-07-04T02:45:52;11.60;;;2.20;;
55760;SDS011;41679;51.440;-2.012;2022-07-04T02:48:17;12.77;;;2.17;;
55760;SDS011;41679;51.440;-2.012;2022-07-04T02:50:43;13.85;;;2.22;;
55760;SDS011;41679;51.440;-2.012;2022-07-04T02:53:08;12.98;;;1.90;;
55760;SDS011;41679;51.440;-2.012;2022-07-04T02:55:33;11.85;;;1.85;;
55760;SDS011;41679;51.440;-2.012;2022-07-04T02:57:59;12.32;;;2.33;;
55760;SDS011;41679;51.440;-2.012;2022-07-04T03:00:24;12.15;;;2.47;;
55760;SDS011;41679;51.440;-2.012;2022-07-04T03:02:50;15.63;;;4.07;;
55760;SDS011;41679;51.440;-2.012;2022-07-04T03:05:15;20.63;;;7.28;;
55760;SDS011;41679;51.440;-2.012;2022-07-04T03:07:41;22.42;;;9.85;;
55760;SDS011;41679;51.440;-2.012;2022-07-04T03:10:06;24.95;;;8.15;;
55760;SDS011;41679;51.440;-2.012;2022-07-04T03:12:32;21.15;;;7.82;;
55760;SDS011;41679;51.440;-2.012;2022-07-04T03:14:58;26.15;;;8.98;;
55760;SDS011;41679;51.440;-2.012;2022-07-04T03:17:24;19.30;;;7.43;;
55760;SDS011;41679;51.440;-2.012;2022-07-04T03:19:50;21.00;;;6.53;;
55760;SDS011;41679;51.440;-2.012;2022-07-04T03:22:16;20.98;;;7.78;;
55760;SDS011;41679;51.440;-2.012;2022-07-04T03:24:41;20.13;;;6.55;;
55760;SDS011;41679;51.440;-2.012;2022-07-04T03:27:07;18.13;;;5.53;;
55760;SDS011;41679;51.440;-2.012;2022-07-04T03:29:33;15.23;;;4.15;;
55760;SDS011;41679;51.440;-2.012;2022-07-04T03:31:58;16.15;;;4.90;;
55760;SDS011;41679;51.440;-2.012;2022-07-04T03:34:24;17.05;;;4.50;;
55760;SDS011;41679;51.440;-2.012;2022-07-04T03:36:51;18.73;;;4.13;;
55760;SDS011;41679;51.440;-2.012;2022-07-04T03:39:17;14.45;;;3.22;;
55760;SDS011;41679;51.440;-2.012;2022-07-04T03:41:42;17.33;;;3.90;;
55760;SDS011;41679;51.440;-2.012;2022-07-04T03:44:08;19.88;;;5.75;;
55760;SDS011;41679;51.440;-2.012;2022-07-04T03:46:33;15.57;;;3.70;;
55760;SDS011;41679;51.440;-2.012;2022-07-04T03:48:59;16.25;;;3.55;;
55760;SDS011;41679;51.440;-2.012;2022-07-04T03:51:24;16.30;;;3.08;;
55760;SDS011;41679;51.440;-2.012;2022-07-04T03:53:50;12.55;;;2.53;;
55760;SDS011;41679;51.440;-2.012;2022-07-04T03:56:16;12.98;;;2.63;;
55760;SDS011;41679;51.440;-2.012;2022-07-04T03:58:41;14.77;;;2.88;;
55760;SDS011;41679;51.440;-2.012;2022-07-04T04:01:07;16.42;;;3.67;;
55760;SDS011;41679;51.440;-2.012;2022-07-04T04:03:36;16.73;;;2.42;;
55760;SDS011;41679;51.440;-2.012;2022-07-04T04:06:20;13.57;;;2.53;;
55760;SDS011;41679;51.440;-2.012;2022-07-04T04:08:45;14.27;;;2.75;;
55760;SDS011;41679;51.440;-2.012;2022-07-04T04:11:11;12.77;;;2.53;;
55760;SDS011;41679;51.440;-2.012;2022-07-04T04:13:36;15.30;;;2.53;;
55760;SDS011;41679;51.440;-2.012;2022-07-04T04:16:02;20.05;;;3.05;;
55760;SDS011;41679;51.440;-2.012;2022-07-04T04:18:27;17.98;;;3.45;;
55760;SDS011;41679;51.440;-2.012;2022-07-04T04:20:53;15.60;;;2.50;;
55760;SDS011;41679;51.440;-2.012;2022-07-04T04:23:18;14.00;;;2.58;;
55760;SDS011;41679;51.440;-2.012;2022-07-04T04:25:45;13.73;;;2.42;;
55760;SDS011;41679;51.440;-2.012;2022-07-04T04:28:10;13.82;;;3.10;;
55760;SDS011;41679;51.440;-2.012;2022-07-04T04:30:36;15.02;;;1.98;;
55760;SDS011;41679;51.440;-2.012;2022-07-04T04:33:01;14.52;;;3.00;;
55760;SDS011;41679;51.440;-2.012;2022-07-04T04:35:27;14.20;;;2.53;;
55760;SDS011;41679;51.440;-2.012;2022-07-04T04:37:52;14.32;;;2.20;;
55760;SDS011;41679;51.440;-2.012;2022-07-04T04:40:18;11.27;;;2.00;;
55760;SDS011;41679;51.440;-2.012;2022-07-04T04:42:43;14.85;;;2.08;;
55760;SDS011;41679;51.440;-2.012;2022-07-04T04:45:09;13.93;;;2.45;;
55760;SDS011;41679;51.440;-2.012;2022-07-04T04:47:35;14.88;;;2.50;;
55760;SDS011;41679;51.440;-2.012;2022-07-04T04:50:00;15.00;;;2.20;;
55760;SDS011;41679;51.440;-2.012;2022-07-04T04:52:26;18.83;;;3.38;;
55760;SDS011;41679;51.440;-2.012;2022-07-04T04:54:52;16.23;;;2.00;;
55760;SDS011;41679;51.440;-2.012;2022-07-04T04:57:17;18.30;;;4.75;;
55760;SDS011;41679;51.440;-2.012;2022-07-04T04:59:42;16.25;;;2.30;;
55760;SDS011;41679;51.440;-2.012;2022-07-04T05:02:08;14.82;;;2.15;;
55760;SDS011;41679;51.440;-2.012;2022-07-04T05:04:34;17.70;;;2.75;;
55760;SDS011;41679;51.440;-2.012;2022-07-04T05:07:00;19.35;;;2.90;;
55760;SDS011;41679;51.440;-2.012;2022-07-04T05:09:26;11.73;;;2.47;;
55760;SDS011;41679;51.440;-2.012;2022-07-04T05:11:51;14.18;;;2.28;;
55760;SDS011;41679;51.440;-2.012;2022-07-04T05:14:17;12.45;;;2.10;;
55760;SDS011;41679;51.440;-2.012;2022-07-04T05:16:43;9.95;;;1.65;;
55760;SDS011;41679;51.440;-2.012;2022-07-04T05:19:09;13.85;;;1.85;;
55760;SDS011;41679;51.440;-2.012;2022-07-04T05:21:34;16.48;;;2.10;;
55760;SDS011;41679;51.440;-2.012;2022-07-04T05:24:00;11.32;;;1.90;;
55760;SDS011;41679;51.440;-2.012;2022-07-04T05:26:26;14.68;;;1.95;;
55760;SDS011;41679;51.440;-2.012;2022-07-04T05:28:51;9.98;;;1.95;;
55760;SDS011;41679;51.440;-2.012;2022-07-04T05:31:17;12.07;;;1.60;;
55760;SDS011;41679;51.440;-2.012;2022-07-04T05:33:42;12.30;;;2.00;;
55760;SDS011;41679;51.440;-2.012;2022-07-04T05:36:08;13.13;;;1.80;;
55760;SDS011;41679;51.440;-2.012;2022-07-04T05:38:33;13.55;;;1.67;;
55760;SDS011;41679;51.440;-2.012;2022-07-04T05:40:59;15.45;;;1.52;;
55760;SDS011;41679;51.440;-2.012;2022-07-04T05:43:25;10.48;;;1.40;;
55760;SDS011;41679;51.440;-2.012;2022-07-04T05:45:51;10.85;;;1.30;;
55760;SDS011;41679;51.440;-2.012;2022-07-04T05:48:17;12.57;;;1.27;;
55760;SDS011;41679;51.440;-2.012;2022-07-04T05:50:42;12.00;;;1.40;;
55760;SDS011;41679;51.440;-2.012;2022-07-04T05:53:08;14.02;;;1.38;;
55760;SDS011;41679;51.440;-2.012;2022-07-04T05:55:33;13.18;;;1.30;;
55760;SDS011;41679;51.440;-2.012;2022-07-04T05:58:00;14.13;;;2.08;;
55760;SDS011;41679;51.440;-2.012;2022-07-04T06:00:25;13.73;;;1.77;;
55760;SDS011;41679;51.440;-2.012;2022-07-04T06:02:51;11.27;;;1.27;;
55760;SDS011;41679;51.440;-2.012;2022-07-04T06:05:16;10.20;;;1.17;;
55760;SDS011;41679;51.440;-2.012;2022-07-04T06:07:42;12.25;;;1.23;;
55760;SDS011;41679;51.440;-2.012;2022-07-04T06:10:08;10.90;;;1.27;;
55760;SDS011;41679;51.440;-2.012;2022-07-04T06:12:34;8.30;;;1.10;;
55760;SDS011;41679;51.440;-2.012;2022-07-04T06:15:00;12.18;;;1.40;;
55760;SDS011;41679;51.440;-2.012;2022-07-04T06:17:26;13.10;;;1.20;;
55760;SDS011;41679;51.440;-2.012;2022-07-04T06:19:52;11.25;;;0.98;;
55760;SDS011;41679;51.440;-2.012;2022-07-04T06:22:18;12.20;;;1.38;;
55760;SDS011;41679;51.440;-2.012;2022-07-04T06:24:43;11.68;;;1.20;;
55760;SDS011;41679;51.440;-2.012;2022-07-04T06:27:09;12.32;;;1.00;;
55760;SDS011;41679;51.440;-2.012;2022-07-04T06:29:35;12.23;;;1.52;;
55760;SDS011;41679;51.440;-2.012;2022-07-04T06:32:00;13.73;;;1.00;;
55760;SDS011;41679;51.440;-2.012;2022-07-04T06:34:26;10.60;;;1.08;;
55760;SDS011;41679;51.440;-2.012;2022-07-04T06:37:10;10.77;;;1.02;;
55760;SDS011;41679;51.440;-2.012;2022-07-04T06:39:36;11.07;;;1.23;;
55760;SDS011;41679;51.440;-2.012;2022-07-04T06:42:01;6.85;;;0.65;;
55760;SDS011;41679;51.440;-2.012;2022-07-04T06:44:27;9.23;;;0.80;;
55760;SDS011;41679;51.440;-2.012;2022-07-04T06:46:52;13.13;;;1.35;;
55760;SDS011;41679;51.440;-2.012;2022-07-04T06:49:18;9.93;;;0.95;;
55760;SDS011;41679;51.440;-2.012;2022-07-04T06:51:44;10.80;;;1.05;;
55760;SDS011;41679;51.440;-2.012;2022-07-04T06:54:10;17.00;;;1.58;;
55760;SDS011;41679;51.440;-2.012;2022-07-04T06:56:35;9.35;;;0.70;;
55760;SDS011;41679;51.440;-2.012;2022-07-04T06:59:01;21.63;;;2.42;;
55760;SDS011;41679;51.440;-2.012;2022-07-04T07:01:31;11.90;;;1.02;;
55760;SDS011;41679;51.440;-2.012;2022-07-04T07:03:58;5.95;;;0.68;;
55760;SDS011;41679;51.440;-2.012;2022-07-04T07:06:24;14.30;;;1.67;;
55760;SDS011;41679;51.440;-2.012;2022-07-04T07:08:49;13.80;;;1.25;;
55760;SDS011;41679;51.440;-2.012;2022-07-04T07:11:15;9.95;;;0.82;;
55760;SDS011;41679;51.440;-2.012;2022-07-04T07:13:44;9.40;;;0.75;;
55760;SDS011;41679;51.440;-2.012;2022-07-04T07:16:16;10.43;;;1.20;;
55760;SDS011;41679;51.440;-2.012;2022-07-04T07:18:42;11.77;;;0.88;;
55760;SDS011;41679;51.440;-2.012;2022-07-04T07:21:08;10.40;;;0.90;;
55760;SDS011;41679;51.440;-2.012;2022-07-04T07:23:33;10.15;;;0.88;;
55760;SDS011;41679;51.440;-2.012;2022-07-04T07:26:02;10.50;;;1.20;;
55760;SDS011;41679;51.440;-2.012;2022-07-04T07:28:27;7.93;;;0.88;;
55760;SDS011;41679;51.440;-2.012;2022-07-04T07:30:52;9.43;;;1.00;;
55760;SDS011;41679;51.440;-2.012;2022-07-04T07:33:18;16.30;;;1.45;;
55760;SDS011;41679;51.440;-2.012;2022-07-04T07:35:43;12.50;;;1.17;;
55760;SDS011;41679;51.440;-2.012;2022-07-04T07:38:09;11.23;;;1.08;;
55760;SDS011;41679;51.440;-2.012;2022-07-04T07:40:34;10.25;;;0.80;;
55760;SDS011;41679;51.440;-2.012;2022-07-04T07:42:59;10.73;;;1.00;;
55760;SDS011;41679;51.440;-2.012;2022-07-04T07:45:25;11.70;;;0.80;;
55760;SDS011;41679;51.440;-2.012;2022-07-04T07:47:51;7.07;;;0.68;;
55760;SDS011;41679;51.440;-2.012;2022-07-04T07:50:16;12.45;;;1.00;;
55760;SDS011;41679;51.440;-2.012;2022-07-04T07:52:42;11.18;;;1.02;;
55760;SDS011;41679;51.440;-2.012;2022-07-04T07:55:07;14.02;;;1.02;;
55760;SDS011;41679;51.440;-2.012;2022-07-04T07:57:33;10.95;;;0.95;;
55760;SDS011;41679;51.440;-2.012;2022-07-04T07:59:58;12.38;;;1.77;;
55760;SDS011;41679;51.440;-2.012;2022-07-04T08:02:24;11.40;;;1.60;;
55760;SDS011;41679;51.440;-2.012;2022-07-04T08:05:09;13.38;;;1.17;;
55760;SDS011;41679;51.440;-2.012;2022-07-04T08:07:35;13.68;;;1.55;;
55760;SDS011;41679;51.440;-2.012;2022-07-04T08:10:02;10.60;;;1.55;;
55760;SDS011;41679;51.440;-2.012;2022-07-04T08:12:28;11.13;;;1.00;;
55760;SDS011;41679;51.440;-2.012;2022-07-04T08:14:54;11.27;;;0.80;;
55760;SDS011;41679;51.440;-2.012;2022-07-04T08:17:20;4.13;;;0.35;;
55760;SDS011;41679;51.440;-2.012;2022-07-04T08:19:45;5.38;;;0.40;;
55760;SDS011;41679;51.440;-2.012;2022-07-04T08:22:12;10.50;;;0.60;;
55760;SDS011;41679;51.440;-2.012;2022-07-04T08:24:38;7.40;;;0.60;;
55760;SDS011;41679;51.440;-2.012;2022-07-04T08:27:03;5.05;;;0.98;;
55760;SDS011;41679;51.440;-2.012;2022-07-04T08:29:29;7.88;;;1.50;;
55760;SDS011;41679;51.440;-2.012;2022-07-04T08:31:57;10.43;;;0.90;;
55760;SDS011;41679;51.440;-2.012;2022-07-04T08:34:22;6.85;;;0.60;;
55760;SDS011;41679;51.440;-2.012;2022-07-04T08:36:48;13.25;;;1.10;;
55760;SDS011;41679;51.440;-2.012;2022-07-04T08:39:13;6.93;;;0.60;;
55760;SDS011;41679;51.440;-2.012;2022-07-04T08:41:39;13.25;;;1.00;;
55760;SDS011;41679;51.440;-2.012;2022-07-04T08:44:06;7.00;;;0.60;;
55760;SDS011;41679;51.440;-2.012;2022-07-04T08:46:36;9.30;;;0.65;;
55760;SDS011;41679;51.440;-2.012;2022-07-04T08:49:05;3.42;;;0.40;;
55760;SDS011;41679;51.440;-2.012;2022-07-04T08:54:18;7.40;;;0.93;;
55760;SDS011;41679;51.440;-2.012;2022-07-04T08:57:05;11.15;;;0.75;;
55760;SDS011;41679;51.440;-2.012;2022-07-04T08:59:49;8.13;;;0.70;;
55760;SDS011;41679;51.440;-2.012;2022-07-04T09:02:18;6.72;;;0.57;;
55760;SDS011;41679;51.440;-2.012;2022-07-04T09:04:45;8.57;;;0.85;;
55760;SDS011;41679;51.440;-2.012;2022-07-04T09:07:11;10.93;;;0.70;;
55760;SDS011;41679;51.440;-2.012;2022-07-04T09:09:39;10.90;;;0.98;;
55760;SDS011;41679;51.440;-2.012;2022-07-04T09:12:05;8.95;;;0.60;;
55760;SDS011;41679;51.440;-2.012;2022-07-04T09:14:31;12.18;;;1.00;;
55760;SDS011;41679;51.440;-2.012;2022-07-04T09:16:58;10.63;;;1.05;;
55760;SDS011;41679;51.440;-2.012;2022-07-04T09:19:24;4.50;;;0.50;;
55760;SDS011;41679;51.440;-2.012;2022-07-04T09:21:50;9.65;;;0.70;;
55760;SDS011;41679;51.440;-2.012;2022-07-04T09:24:15;6.60;;;0.40;;
55760;SDS011;41679;51.440;-2.012;2022-07-04T09:26:44;25.08;;;5.05;;
55760;SDS011;41679;51.440;-2.012;2022-07-04T09:29:11;5.85;;;0.50;;
55760;SDS011;41679;51.440;-2.012;2022-07-04T09:31:37;10.55;;;0.68;;
55760;SDS011;41679;51.440;-2.012;2022-07-04T09:34:04;6.07;;;0.50;;
55760;SDS011;41679;51.440;-2.012;2022-07-04T09:36:38;8.10;;;0.80;;
55760;SDS011;41679;51.440;-2.012;2022-07-04T09:39:16;7.90;;;0.75;;
55760;SDS011;41679;51.440;-2.012;2022-07-04T09:42:02;8.85;;;0.50;;
55760;SDS011;41679;51.440;-2.012;2022-07-04T09:44:42;11.52;;;0.73;;
55760;SDS011;41679;51.440;-2.012;2022-07-04T09:47:27;12.93;;;0.75;;
55760;SDS011;41679;51.440;-2.012;2022-07-04T09:52:46;8.90;;;0.77;;
55760;SDS011;41679;51.440;-2.012;2022-07-04T09:55:24;6.15;;;0.68;;
55760;SDS011;41679;51.440;-2.012;2022-07-04T09:57:57;9.30;;;0.70;;
55760;SDS011;41679;51.440;-2.012;2022-07-04T10:00:28;8.73;;;0.50;;
55760;SDS011;41679;51.440;-2.012;2022-07-04T10:02:56;8.27;;;0.60;;
55760;SDS011;41679;51.440;-2.012;2022-07-04T10:05:40;9.50;;;0.63;;
55760;SDS011;41679;51.440;-2.012;2022-07-04T10:08:06;12.60;;;0.82;;
55760;SDS011;41679;51.440;-2.012;2022-07-04T10:10:35;7.68;;;0.63;;
55760;SDS011;41679;51.440;-2.012;2022-07-04T10:13:05;8.13;;;0.43;;
55760;SDS011;41679;51.440;-2.012;2022-07-04T10:15:33;7.82;;;0.73;;
55760;SDS011;41679;51.440;-2.012;2022-07-04T10:18:05;12.82;;;1.35;;
55760;SDS011;41679;51.440;-2.012;2022-07-04T10:20:32;10.20;;;1.02;;
55760;SDS011;41679;51.440;-2.012;2022-07-04T10:22:59;13.57;;;0.60;;
55760;SDS011;41679;51.440;-2.012;2022-07-04T10:25:25;10.40;;;0.70;;
55760;SDS011;41679;51.440;-2.012;2022-07-04T10:27:51;13.80;;;1.05;;
55760;SDS011;41679;51.440;-2.012;2022-07-04T10:30:35;16.58;;;1.30;;
55760;SDS011;41679;51.440;-2.012;2022-07-04T10:33:03;13.18;;;0.80;;
55760;SDS011;41679;51.440;-2.012;2022-07-04T10:38:19;9.90;;;0.75;;
55760;SDS011;41679;51.440;-2.012;2022-07-04T10:40:53;13.23;;;0.93;;
55760;SDS011;41679;51.440;-2.012;2022-07-04T10:48:57;8.40;;;0.70;;
55760;SDS011;41679;51.440;-2.012;2022-07-04T10:51:39;9.25;;;0.50;;
55760;SDS011;41679;51.440;-2.012;2022-07-04T10:56:54;8.38;;;0.50;;
55760;SDS011;41679;51.440;-2.012;2022-07-04T10:59:27;11.30;;;1.00;;
55760;SDS011;41679;51.440;-2.012;2022-07-04T11:02:20;13.10;;;0.80;;
55760;SDS011;41679;51.440;-2.012;2022-07-04T11:13:21;9.13;;;0.55;;
55760;SDS011;41679;51.440;-2.012;2022-07-04T11:20:26;9.40;;;0.82;;
55760;SDS011;41679;51.440;-2.012;2022-07-04T11:25:39;5.60;;;0.73;;
55760;SDS011;41679;51.440;-2.012;2022-07-04T11:30:50;9.68;;;0.82;;
55760;SDS011;41679;51.440;-2.012;2022-07-04T11:33:22;10.38;;;0.95;;
55760;SDS011;41679;51.440;-2.012;2022-07-04T11:36:09;9.95;;;0.80;;
55760;SDS011;41679;51.440;-2.012;2022-07-04T11:38:57;9.82;;;0.63;;
55760;SDS011;41679;51.440;-2.012;2022-07-04T11:41:29;8.10;;;0.93;;
55760;SDS011;41679;51.440;-2.012;2022-07-04T11:44:18;6.90;;;0.73;;
55760;SDS011;41679;51.440;-2.012;2022-07-04T11:47:04;11.80;;;0.98;;
55760;SDS011;41679;51.440;-2.012;2022-07-04T11:49:30;10.75;;;0.80;;
55760;SDS011;41679;51.440;-2.012;2022-07-04T11:51:55;11.82;;;0.88;;
55760;SDS011;41679;51.440;-2.012;2022-07-04T11:54:21;12.80;;;1.10;;
55760;SDS011;41679;51.440;-2.012;2022-07-04T11:56:48;9.38;;;1.00;;
55760;SDS011;41679;51.440;-2.012;2022-07-04T11:59:14;7.22;;;1.20;;
55760;SDS011;41679;51.440;-2.012;2022-07-04T12:01:41;10.88;;;0.88;;
55760;SDS011;41679;51.440;-2.012;2022-07-04T12:04:11;12.68;;;1.30;;
55760;SDS011;41679;51.440;-2.012;2022-07-04T12:06:41;9.85;;;0.90;;
55760;SDS011;41679;51.440;-2.012;2022-07-04T12:09:07;9.35;;;1.02;;
55760;SDS011;41679;51.440;-2.012;2022-07-04T12:11:49;12.10;;;0.93;;
55760;SDS011;41679;51.440;-2.012;2022-07-04T12:14:25;8.27;;;0.80;;
55760;SDS011;41679;51.440;-2.012;2022-07-04T12:19:38;12.57;;;1.20;;
55760;SDS011;41679;51.440;-2.012;2022-07-04T12:22:13;12.65;;;1.02;;
55760;SDS011;41679;51.440;-2.012;2022-07-04T12:24:57;6.93;;;0.70;;
55760;SDS011;41679;51.440;-2.012;2022-07-04T12:27:24;9.20;;;0.90;;
55760;SDS011;41679;51.440;-2.012;2022-07-04T12:29:51;10.35;;;1.20;;
55760;SDS011;41679;51.440;-2.012;2022-07-04T12:32:18;8.85;;;0.82;;
55760;SDS011;41679;51.440;-2.012;2022-07-04T12:34:44;8.48;;;0.93;;
55760;SDS011;41679;51.440;-2.012;2022-07-04T12:37:11;7.38;;;0.75;;
55760;SDS011;41679;51.440;-2.012;2022-07-04T12:39:38;8.27;;;0.68;;
55760;SDS011;41679;51.440;-2.012;2022-07-04T12:42:09;6.90;;;0.70;;
55760;SDS011;41679;51.440;-2.012;2022-07-04T12:44:37;9.50;;;1.20;;
55760;SDS011;41679;51.440;-2.012;2022-07-04T12:47:04;4.70;;;0.60;;
55760;SDS011;41679;51.440;-2.012;2022-07-04T12:49:31;8.65;;;0.75;;
55760;SDS011;41679;51.440;-2.012;2022-07-04T12:52:07;5.53;;;0.52;;
55760;SDS011;41679;51.440;-2.012;2022-07-04T12:54:35;7.95;;;0.70;;
55760;SDS011;41679;51.440;-2.012;2022-07-04T12:57:08;4.82;;;0.40;;
55760;SDS011;41679;51.440;-2.012;2022-07-04T12:59:39;6.45;;;0.55;;
55760;SDS011;41679;51.440;-2.012;2022-07-04T13:02:06;9.60;;;0.90;;
55760;SDS011;41679;51.440;-2.012;2022-07-04T13:04:32;6.45;;;0.63;;
55760;SDS011;41679;51.440;-2.012;2022-07-04T13:06:59;4.28;;;0.43;;
55760;SDS011;41679;51.440;-2.012;2022-07-04T13:09:36;7.25;;;0.70;;
55760;SDS011;41679;51.440;-2.012;2022-07-04T13:12:02;5.05;;;0.40;;
55760;SDS011;41679;51.440;-2.012;2022-07-04T13:14:46;5.18;;;0.55;;
55760;SDS011;41679;51.440;-2.012;2022-07-04T13:17:11;8.80;;;0.80;;
55760;SDS011;41679;51.440;-2.012;2022-07-04T13:19:37;6.10;;;0.77;;
55760;SDS011;41679;51.440;-2.012;2022-07-04T13:22:02;5.90;;;0.57;;
55760;SDS011;41679;51.440;-2.012;2022-07-04T13:24:28;7.00;;;1.00;;
55760;SDS011;41679;51.440;-2.012;2022-07-04T13:26:53;7.53;;;0.70;;
55760;SDS011;41679;51.440;-2.012;2022-07-04T13:29:19;5.25;;;0.45;;
55760;SDS011;41679;51.440;-2.012;2022-07-04T13:31:44;9.05;;;0.90;;
55760;SDS011;41679;51.440;-2.012;2022-07-04T13:34:10;12.30;;;0.85;;
55760;SDS011;41679;51.440;-2.012;2022-07-04T13:36:35;5.32;;;0.70;;
55760;SDS011;41679;51.440;-2.012;2022-07-04T13:39:01;6.00;;;0.70;;
55760;SDS011;41679;51.440;-2.012;2022-07-04T13:41:26;6.60;;;0.65;;
55760;SDS011;41679;51.440;-2.012;2022-07-04T13:43:52;6.28;;;0.70;;
55760;SDS011;41679;51.440;-2.012;2022-07-04T13:46:19;9.32;;;0.80;;
55760;SDS011;41679;51.440;-2.012;2022-07-04T13:48:45;6.22;;;0.50;;
55760;SDS011;41679;51.440;-2.012;2022-07-04T13:51:10;8.30;;;0.77;;
55760;SDS011;41679;51.440;-2.012;2022-07-04T13:53:36;11.43;;;1.20;;
55760;SDS011;41679;51.440;-2.012;2022-07-04T13:56:02;8.30;;;0.90;;
55760;SDS011;41679;51.440;-2.012;2022-07-04T13:58:28;6.72;;;0.70;;
55760;SDS011;41679;51.440;-2.012;2022-07-04T14:00:54;6.53;;;0.70;;
55760;SDS011;41679;51.440;-2.012;2022-07-04T14:03:19;8.65;;;1.00;;
55760;SDS011;41679;51.440;-2.012;2022-07-04T14:05:46;10.02;;;0.77;;
55760;SDS011;41679;51.440;-2.012;2022-07-04T14:08:12;6.57;;;0.73;;
55760;SDS011;41679;51.440;-2.012;2022-07-04T14:10:37;6.40;;;0.80;;
55760;SDS011;41679;51.440;-2.012;2022-07-04T14:13:02;10.10;;;0.90;;
55760;SDS011;41679;51.440;-2.012;2022-07-04T14:15:28;4.68;;;0.57;;
55760;SDS011;41679;51.440;-2.012;2022-07-04T14:17:53;7.82;;;0.55;;
55760;SDS011;41679;51.440;-2.012;2022-07-04T14:20:19;11.82;;;1.00;;
55760;SDS011;41679;51.440;-2.012;2022-07-04T14:22:44;5.55;;;0.52;;
55760;SDS011;41679;51.440;-2.012;2022-07-04T14:25:09;9.48;;;0.95;;
55760;SDS011;41679;51.440;-2.012;2022-07-04T14:27:35;6.93;;;0.70;;
55760;SDS011;41679;51.440;-2.012;2022-07-04T14:30:01;7.57;;;0.80;;
55760;SDS011;41679;51.440;-2.012;2022-07-04T14:32:28;14.95;;;1.75;;
55760;SDS011;41679;51.440;-2.012;2022-07-04T14:34:53;6.70;;;0.80;;
55760;SDS011;41679;51.440;-2.012;2022-07-04T14:37:19;6.10;;;0.93;;
55760;SDS011;41679;51.440;-2.012;2022-07-04T14:39:44;9.32;;;0.98;;
55760;SDS011;41679;51.440;-2.012;2022-07-04T14:42:10;5.45;;;0.60;;
55760;SDS011;41679;51.440;-2.012;2022-07-04T14:44:35;5.00;;;0.50;;
55760;SDS011;41679;51.440;-2.012;2022-07-04T14:47:05;5.45;;;0.50;;
55760;SDS011;41679;51.440;-2.012;2022-07-04T14:49:31;7.55;;;0.70;;
55760;SDS011;41679;51.440;-2.012;2022-07-04T14:51:57;5.72;;;0.70;;
55760;SDS011;41679;51.440;-2.012;2022-07-04T14:54:24;3.63;;;0.40;;
55760;SDS011;41679;51.440;-2.012;2022-07-04T14:56:50;8.68;;;1.13;;
55760;SDS011;41679;51.440;-2.012;2022-07-04T14:59:16;4.15;;;0.57;;
55760;SDS011;41679;51.440;-2.012;2022-07-04T15:01:42;5.20;;;0.70;;
55760;SDS011;41679;51.440;-2.012;2022-07-04T15:04:07;2.30;;;0.50;;
55760;SDS011;41679;51.440;-2.012;2022-07-04T15:06:33;7.88;;;0.63;;
55760;SDS011;41679;51.440;-2.012;2022-07-04T15:08:58;6.55;;;0.70;;